Time;durP1;ratioP1;P1;durP2;ratioP2;P2;SDS_P1;SDS_P2;PMS_P1;PMS_P2;Temp;Humidity;BMP_temperature;BMP_pressure;BME280_temperature;BME280_humidity;BME280_pressure;Samples;Min_cycle;Max_cycle;Signal;HPM_P1;HPM_P2
2023/09/12 00:03:12;;;;;;;582.28;548.60;;;;;;;18.53;100.00;101291.56;10450607;28;20120;-67
2023/09/12 00:08:13;;;;;;;569.47;537.10;;;;;;;18.54;100.00;101296.00;10450885;28;20067;-67
2023/09/12 00:13:13;;;;;;;579.72;545.25;;;;;;;18.52;100.00;101295.41;10450479;28;20041;-67
2023/09/12 00:18:14;;;;;;;524.80;496.27;;;;;;;18.49;100.00;101293.13;10432385;28;20466;-67
2023/09/12 00:23:14;;;;;;;530.53;500.73;;;;;;;18.44;100.00;101280.16;10450672;28;20045;-66
2023/09/12 00:28:14;;;;;;;537.58;507.50;;;;;;;18.39;100.00;101277.28;10450726;28;20064;-67
2023/09/12 00:33:15;;;;;;;504.13;476.17;;;;;;;18.36;100.00;101270.38;10450591;28;20033;-67
2023/09/12 00:38:15;;;;;;;541.53;511.00;;;;;;;18.33;100.00;101265.38;10432625;28;20087;-66
2023/09/12 00:43:16;;;;;;;516.50;488.52;;;;;;;18.27;100.00;101274.56;10432164;28;20025;-67
2023/09/12 00:48:17;;;;;;;500.17;472.58;;;;;;;18.23;100.00;101256.91;10430788;28;20053;-67
2023/09/12 00:53:18;;;;;;;518.63;490.90;;;;;;;18.26;100.00;101255.63;10431727;28;20137;-67
2023/09/12 00:58:18;;;;;;;466.05;442.83;;;;;;;18.17;100.00;101252.41;10432100;28;20037;-67
2023/09/12 01:03:18;;;;;;;476.02;452.20;;;;;;;18.10;100.00;101249.78;10450144;28;20527;-67
2023/09/12 01:08:19;;;;;;;463.58;439.65;;;;;;;18.03;100.00;101261.94;10449600;28;20068;-67
2023/09/12 01:13:19;;;;;;;439.38;418.38;;;;;;;17.99;100.00;101266.22;10431487;28;20036;-68
2023/09/12 01:18:20;;;;;;;447.25;424.58;;;;;;;17.94;100.00;101258.72;10451373;28;20381;-67
2023/09/12 01:23:51;;;;;;;445.48;423.38;;;;;;;17.86;100.00;101254.41;10438878;28;20052;-67
2023/09/12 01:28:52;;;;;;;424.08;403.80;;;;;;;17.84;100.00;101250.25;10456020;28;20033;-67
2023/09/12 01:33:57;;;;;;;406.42;385.98;;;;;;;17.81;100.00;101245.25;10440097;28;20033;-67
2023/09/12 01:38:57;;;;;;;392.15;373.05;;;;;;;17.80;100.00;101244.41;10440773;28;20078;-67
2023/09/12 01:43:59;;;;;;;394.13;375.15;;;;;;;17.77;100.00;101228.47;10457419;28;20361;-68
2023/09/12 01:48:59;;;;;;;400.63;379.65;;;;;;;17.76;100.00;101237.69;10421141;28;20080;-67
2023/09/12 01:54:00;;;;;;;396.10;376.50;;;;;;;17.77;100.00;101233.94;10437363;28;20465;-67
2023/09/12 01:59:00;;;;;;;425.67;404.88;;;;;;;17.82;100.00;101236.78;10455325;28;20040;-67
2023/09/12 02:04:00;;;;;;;399.40;379.60;;;;;;;17.87;100.00;101236.91;10436851;28;20025;-67
2023/09/12 02:09:01;;;;;;;442.80;420.08;;;;;;;17.86;100.00;101232.50;10455694;28;20500;-67
2023/09/12 02:14:02;;;;;;;413.38;392.55;;;;;;;17.86;100.00;101237.97;10436776;28;20037;-67
2023/09/12 02:19:02;;;;;;;421.20;400.42;;;;;;;17.90;100.00;101246.56;10436557;28;20506;-67
2023/09/12 02:24:03;;;;;;;360.75;341.88;;;;;;;17.97;100.00;101243.72;10454496;28;20103;-67
2023/09/12 02:29:05;;;;;;;393.35;373.17;;;;;;;17.99;100.00;101236.91;10453630;28;20037;-67
2023/09/12 02:34:06;;;;;;;352.33;334.83;;;;;;;18.03;100.00;101237.28;10454560;28;20040;-67
2023/09/12 02:39:06;;;;;;;357.20;338.65;;;;;;;18.04;100.00;101238.94;10436161;28;20072;-68
2023/09/12 02:44:07;;;;;;;380.75;359.92;;;;;;;18.10;100.00;101243.47;10453124;28;20033;-68
2023/09/12 02:49:07;;;;;;;365.35;344.65;;;;;;;18.15;100.00;101238.09;10452310;28;20114;-68
2023/09/12 02:54:08;;;;;;;293.98;277.92;;;;;;;18.24;100.00;101238.56;10435215;28;20073;-68
2023/09/12 02:59:08;;;;;;;297.35;281.33;;;;;;;18.31;100.00;101222.81;10435112;28;20075;-68
2023/09/12 03:04:09;;;;;;;281.05;265.13;;;;;;;18.41;100.00;101224.94;10434728;28;20056;-67
2023/09/12 03:09:11;;;;;;;334.30;315.05;;;;;;;18.45;100.00;101229.72;10451888;28;20041;-67
2023/09/12 03:14:11;;;;;;;338.73;318.80;;;;;;;18.52;100.00;101219.44;10452306;28;20041;-67
2023/09/12 03:19:11;;;;;;;318.85;300.85;;;;;;;18.55;100.00;101221.69;10451661;28;20045;-67
2023/09/12 03:24:12;;;;;;;315.83;298.08;;;;;;;18.55;100.00;101220.88;10434181;28;20095;-68
2023/09/12 03:29:12;;;;;;;299.05;282.48;;;;;;;18.56;100.00;101228.00;10418632;28;20037;-67
2023/09/12 03:34:13;;;;;;;335.70;317.40;;;;;;;18.56;100.00;101217.03;10451924;28;20412;-67
2023/09/12 03:39:13;;;;;;;343.38;323.88;;;;;;;18.55;100.00;101213.47;10451040;28;20045;-67
2023/09/12 03:44:14;;;;;;;344.42;325.10;;;;;;;18.58;100.00;101206.66;10451776;28;20047;-68
2023/09/12 03:49:14;;;;;;;338.33;320.05;;;;;;;18.62;100.00;101217.97;10451304;28;20454;-67
2023/09/12 03:54:14;;;;;;;344.33;324.35;;;;;;;18.67;100.00;101220.84;10451574;28;20037;-67
2023/09/12 03:59:15;;;;;;;315.60;296.50;;;;;;;18.68;100.00;101215.09;10433017;28;20033;-67
2023/09/12 04:04:15;;;;;;;338.55;319.10;;;;;;;18.71;100.00;101214.59;10432891;28;20597;-66
2023/09/12 04:09:16;;;;;;;357.10;337.00;;;;;;;18.71;100.00;101211.03;10451124;28;20041;-67
2023/09/12 04:14:17;;;;;;;386.88;365.00;;;;;;;18.72;100.00;101219.03;10433432;28;20033;-67
2023/09/12 04:19:17;;;;;;;385.77;364.58;;;;;;;18.78;100.00;101217.25;10451985;28;20076;-67
2023/09/12 04:24:18;;;;;;;388.02;365.65;;;;;;;18.80;100.00;101218.66;10432765;28;20040;-67
2023/09/12 04:29:18;;;;;;;418.80;396.30;;;;;;;18.79;100.00;101227.97;10450701;28;20067;-67
2023/09/12 04:34:18;;;;;;;361.60;341.33;;;;;;;18.82;100.00;101229.38;10450579;28;20461;-66
2023/09/12 04:39:19;;;;;;;353.00;334.17;;;;;;;18.84;100.00;101232.72;10450489;28;20037;-69
2023/09/12 04:44:19;;;;;;;378.65;357.35;;;;;;;18.84;100.00;101229.16;10450395;28;20172;-70
2023/09/12 04:49:20;;;;;;;381.33;359.83;;;;;;;18.84;100.00;101221.75;10449698;28;20440;-71
2023/09/12 04:54:21;;;;;;;392.95;371.30;;;;;;;18.87;100.00;101225.91;10456218;28;20057;-70
2023/09/12 04:59:21;;;;;;;400.30;378.38;;;;;;;18.88;100.00;101228.41;10384495;28;20075;-69
2023/09/12 05:04:22;;;;;;;409.60;386.40;;;;;;;18.89;100.00;101215.50;10539719;28;20127;-62
2023/09/12 05:09:22;;;;;;;404.88;382.50;;;;;;;18.93;100.00;101230.44;10540940;28;20036;-62
2023/09/12 05:14:22;;;;;;;409.95;387.77;;;;;;;18.99;100.00;101230.28;10540683;28;20395;-61
2023/09/12 05:19:24;;;;;;;365.58;345.25;;;;;;;18.99;100.00;101226.72;10521707;28;20115;-68
2023/09/12 05:24:24;;;;;;;382.73;361.13;;;;;;;19.00;100.00;101236.59;10521220;28;20123;-68
2023/09/12 05:29:24;;;;;;;407.27;384.95;;;;;;;19.05;100.00;101222.97;10521250;28;20035;-68
2023/09/12 05:34:25;;;;;;;416.33;393.52;;;;;;;19.14;100.00;101246.19;10539066;28;20544;-67
2023/09/12 05:39:25;;;;;;;416.67;394.73;;;;;;;19.20;100.00;101242.47;10539286;28;20123;-68
2023/09/12 05:44:26;;;;;;;451.02;425.73;;;;;;;19.29;100.00;101237.41;10520929;28;20104;-68
2023/09/12 05:49:26;;;;;;;442.67;419.48;;;;;;;19.34;100.00;101243.00;10539107;28;20600;-68
2023/09/12 05:54:26;;;;;;;484.52;458.17;;;;;;;19.33;100.00;101232.25;10520785;28;20145;-68
2023/09/12 05:59:27;;;;;;;460.83;435.55;;;;;;;19.38;100.00;101243.34;10520748;28;20089;-68
2023/09/12 06:04:27;;;;;;;456.40;431.42;;;;;;;19.43;100.00;101247.00;10519350;28;20024;-69
2023/09/12 06:09:28;;;;;;;458.80;434.13;;;;;;;19.50;100.00;101242.19;10538409;28;20032;-68
2023/09/12 06:14:28;;;;;;;430.48;407.90;;;;;;;19.43;100.00;101240.66;10519612;28;20032;-69
2023/09/12 06:19:28;;;;;;;453.40;429.75;;;;;;;19.50;100.00;101233.13;10536683;28;20044;-67
2023/09/12 06:24:29;;;;;;;445.45;421.92;;;;;;;19.58;100.00;101253.84;10519434;28;20130;-68
2023/09/12 06:29:29;;;;;;;443.70;419.77;;;;;;;19.59;100.00;101255.50;10537653;28;20036;-67
2023/09/12 06:34:30;;;;;;;468.50;443.95;;;;;;;19.81;100.00;101258.34;10536756;28;20056;-68
2023/09/12 06:39:30;;;;;;;467.35;442.45;;;;;;;19.90;100.00;101263.19;10502630;28;20120;-68
2023/09/12 06:44:30;;;;;;;510.75;482.10;;;;;;;19.85;100.00;101265.03;10536768;28;20044;-70
2023/09/12 06:49:32;;;;;;;454.33;429.95;;;;;;;19.85;100.00;101262.28;10519990;28;20048;-69
2023/09/12 06:54:33;;;;;;;500.02;473.15;;;;;;;20.16;100.00;101261.66;10503193;28;20032;-68
2023/09/12 06:59:34;;;;;;;508.98;481.55;;;;;;;20.82;100.00;101266.41;10502287;28;20177;-69
2023/09/12 07:04:34;;;;;;;509.50;481.73;;;;;;;20.94;100.00;101282.81;10518115;28;20040;-68
2023/09/12 07:09:35;;;;;;;553.05;521.80;;;;;;;21.18;100.00;101275.91;10535881;28;20387;-68
2023/09/12 07:14:37;;;;;;;568.95;537.33;;;;;;;20.93;100.00;101287.47;10517543;28;20115;-68
2023/09/12 07:19:38;;;;;;;577.47;546.03;;;;;;;20.81;100.00;101290.34;10535169;28;20066;-69
2023/09/12 07:24:38;;;;;;;602.53;569.10;;;;;;;21.11;100.00;101298.13;10517112;28;20067;-68
2023/09/12 07:29:38;;;;;;;599.25;565.63;;;;;;;21.09;100.00;101304.97;10534223;28;20040;-68
2023/09/12 07:34:40;;;;;;;598.85;565.38;;;;;;;21.04;100.00;101296.69;10535224;28;20411;-69
2023/09/12 07:39:40;;;;;;;592.33;559.67;;;;;;;21.08;100.00;101306.09;10534256;28;20043;-67
2023/09/12 07:44:41;;;;;;;575.38;544.55;;;;;;;21.31;100.00;101307.72;10534124;28;20515;-68
2023/09/12 07:49:42;;;;;;;548.47;519.05;;;;;;;21.70;100.00;101308.41;10515071;28;20623;-68
2023/09/12 07:54:43;;;;;;;666.63;628.60;;;;;;;22.28;100.00;101303.94;10516226;28;20038;-68
2023/09/12 07:59:43;;;;;;;632.25;596.33;;;;;;;23.11;100.00;101305.19;10498760;28;20491;-68
2023/09/12 08:04:44;;;;;;;660.50;622.22;;;;;;;24.29;100.00;101297.81;10533437;28;20047;-69
2023/09/12 08:10:02;;;;;;;640.42;603.45;;;;;;;25.41;100.00;101308.47;10533239;28;20142;-67
2023/09/12 08:15:03;;;;;;;661.25;623.15;;;;;;;26.23;100.00;101315.31;10533530;28;20032;-68
2023/09/12 08:20:05;;;;;;;647.05;610.40;;;;;;;26.00;100.00;101312.19;10498043;28;20227;-68
2023/09/12 08:25:05;;;;;;;640.47;603.35;;;;;;;25.88;100.00;101314.53;10515435;28;20032;-68
2023/09/12 08:30:06;;;;;;;482.98;458.17;;;;;;;27.28;100.00;101308.84;10542328;28;20282;-68
2023/09/12 08:35:07;;;;;;;573.08;542.15;;;;;;;28.25;100.00;101307.25;10541255;28;20066;-67
2023/09/12 08:40:11;;;;;;;601.97;569.60;;;;;;;26.93;100.00;101312.91;10541392;28;20044;-68
2023/09/12 08:45:13;;;;;;;593.30;561.75;;;;;;;27.68;100.00;101309.31;10523343;28;20036;-68
2023/09/12 08:50:16;;;;;;;618.25;584.58;;;;;;;27.68;100.00;101308.50;10540802;28;20054;-67
2023/09/12 08:55:16;;;;;;;626.88;592.58;;;;;;;27.28;100.00;101305.19;10506332;28;20050;-66
2023/09/12 09:00:17;;;;;;;609.13;576.25;;;;;;;26.25;100.00;101311.13;10522427;28;20383;-66
2023/09/12 09:05:18;;;;;;;626.00;591.42;;;;;;;25.96;100.00;101313.91;10522574;28;20036;-67
2023/09/12 09:10:18;;;;;;;576.58;546.72;;;;;;;27.13;100.00;101315.44;10540468;28;20482;-66
2023/09/12 09:15:28;;;;;;;597.03;565.20;;;;;;;28.97;100.00;101311.41;10521730;28;20040;-67
2023/09/12 09:20:31;;;;;;;611.47;578.28;;;;;;;30.47;100.00;101301.91;10505316;28;20097;-67
2023/09/12 09:25:32;;;;;;;645.22;609.25;;;;;;;30.57;100.00;101312.84;10487994;28;20107;-67
2023/09/12 09:30:43;;;;;;;625.05;590.25;;;;;;;30.21;100.00;101313.81;10521737;28;20441;-67
2023/09/12 09:35:46;;;;;;;631.45;596.75;;;;;;;28.83;100.00;101322.56;10521625;28;20032;-68
2023/09/12 09:40:46;;;;;;;633.65;598.65;;;;;;;27.38;100.00;101334.81;10519871;28;20044;-66
2023/09/12 09:45:47;;;;;;;594.92;562.85;;;;;;;28.42;100.00;101339.28;10538890;28;20446;-67
2023/09/12 09:50:47;;;;;;;588.28;557.17;;;;;;;28.67;100.00;101324.84;10519459;28;20119;-67
2023/09/12 09:55:48;;;;;;;592.03;560.65;;;;;;;28.12;100.00;101318.38;10519983;28;20048;-67
2023/09/12 10:00:48;;;;;;;620.65;586.60;;;;;;;28.72;100.00;101321.16;10519908;28;20516;-67
2023/09/12 10:05:49;;;;;;;602.28;569.50;;;;;;;29.10;100.00;101310.63;10538217;28;20470;-66
2023/09/12 10:10:50;;;;;;;595.28;563.78;;;;;;;28.05;100.00;101314.03;10503204;28;20028;-68
2023/09/12 10:15:50;;;;;;;588.70;557.63;;;;;;;27.32;100.00;101326.56;10518980;28;20426;-67
2023/09/12 10:20:53;;;;;;;585.70;554.75;;;;;;;26.95;100.00;101326.47;10517700;28;20028;-68
2023/09/12 10:25:54;;;;;;;565.97;536.97;;;;;;;26.86;100.00;101321.56;10503034;28;20036;-67
2023/09/12 10:30:56;;;;;;;565.97;536.53;;;;;;;26.30;100.00;101324.97;10519445;28;20533;-68
2023/09/12 10:35:56;;;;;;;580.38;549.97;;;;;;;25.75;100.00;101314.06;10519118;28;20428;-67
2023/09/12 10:40:56;;;;;;;574.58;545.10;;;;;;;25.43;100.00;101316.47;10501956;28;20028;-67
2023/09/12 10:45:57;;;;;;;577.10;546.75;;;;;;;25.23;100.00;101311.91;10519132;28;20028;-67
2023/09/12 10:50:58;;;;;;;593.63;562.50;;;;;;;25.16;100.00;101311.38;10517520;28;20052;-67
2023/09/12 10:56:19;;;;;;;585.58;553.30;;;;;;;25.11;100.00;101306.69;10535846;28;20036;-68
2023/09/12 11:01:26;;;;;;;580.22;549.05;;;;;;;24.99;100.00;101308.97;10500254;28;20040;-66
2023/09/12 11:06:29;;;;;;;574.60;543.88;;;;;;;24.73;100.00;101305.44;10535869;28;20273;-67
2023/09/12 11:11:30;;;;;;;540.13;512.17;;;;;;;24.28;100.00;101323.81;10500659;28;20040;-67
2023/09/12 11:16:31;;;;;;;545.97;518.10;;;;;;;23.99;100.00;101323.56;10516174;28;20032;-68
2023/09/12 11:21:32;;;;;;;504.70;479.13;;;;;;;23.76;100.00;101319.41;10535380;28;20039;-66
2023/09/12 11:26:32;;;;;;;479.92;456.33;;;;;;;23.66;100.00;101323.81;10500079;28;20044;-67
2023/09/12 11:31:33;;;;;;;437.55;417.20;;;;;;;23.72;100.00;101321.09;10535404;28;20484;-68
2023/09/12 11:36:39;;;;;;;405.30;386.08;;;;;;;23.93;100.00;101316.38;10516542;28;20035;-67
2023/09/12 11:41:39;;;;;;;370.75;354.23;;;;;;;24.49;100.00;101313.56;10516039;28;20456;-67
2023/09/12 11:46:40;;;;;;;374.35;357.65;;;;;;;25.43;100.00;101319.25;10498603;28;20044;-67
2023/09/12 11:52:10;;;;;;;412.08;393.05;;;;;;;26.13;100.00;101316.22;10515991;28;20063;-68
2023/09/12 11:57:12;;;;;;;471.90;449.60;;;;;;;26.30;100.00;101319.41;10531174;28;20096;-67
2023/09/12 12:02:12;;;;;;;497.27;472.77;;;;;;;26.18;100.00;101327.31;10533674;28;20059;-67
2023/09/12 12:07:13;;;;;;;505.15;479.67;;;;;;;25.81;100.00;101325.13;10499556;28;20419;-67
2023/09/12 12:12:14;;;;;;;496.20;471.50;;;;;;;25.50;100.00;101322.56;10499129;28;20109;-69
2023/09/12 12:17:15;;;;;;;491.20;466.20;;;;;;;25.47;100.00;101323.97;10515393;28;20032;-67
2023/09/12 12:22:15;;;;;;;487.23;462.92;;;;;;;25.45;100.00;101311.50;10533593;28;20445;-66
2023/09/12 12:27:16;;;;;;;519.60;493.40;;;;;;;25.20;100.00;101306.94;10533120;28;20069;-67
2023/09/12 12:32:16;;;;;;;483.67;460.15;;;;;;;25.04;100.00;101303.38;10532957;28;20054;-66
2023/09/12 12:37:17;;;;;;;476.25;453.35;;;;;;;25.10;100.00;101295.88;10533248;28;20063;-67
2023/09/12 12:42:18;;;;;;;488.98;464.88;;;;;;;25.12;100.00;101304.75;10515223;28;20464;-68
2023/09/12 12:47:19;;;;;;;491.90;468.13;;;;;;;25.01;100.00;101312.25;10532540;28;20399;-66
2023/09/12 12:52:24;;;;;;;507.20;482.23;;;;;;;24.87;100.00;101305.69;10497335;28;20127;-67
2023/09/12 12:57:24;;;;;;;488.75;464.60;;;;;;;24.70;100.00;101298.56;10514905;28;20103;-68
2023/09/12 13:02:25;;;;;;;488.98;465.30;;;;;;;24.62;100.00;101285.28;10514533;28;20032;-67
2023/09/12 13:07:25;;;;;;;461.52;439.50;;;;;;;24.39;100.00;101299.72;10532585;28;20036;-67
2023/09/12 13:12:25;;;;;;;470.02;447.15;;;;;;;24.19;100.00;101295.91;10534219;28;20036;-67
2023/09/12 13:17:26;;;;;;;465.02;442.70;;;;;;;24.08;100.00;101294.22;10538950;28;20032;-66
2023/09/12 13:22:26;;;;;;;450.70;429.75;;;;;;;24.07;100.00;101287.06;10539924;28;20028;-73
2023/09/12 13:27:26;;;;;;;439.60;419.45;;;;;;;23.98;100.00;101288.72;10521861;28;20036;-67
2023/09/12 13:32:27;;;;;;;428.80;408.65;;;;;;;23.71;100.00;101286.22;10539115;28;20412;-67
2023/09/12 13:37:29;;;;;;;384.17;366.00;;;;;;;23.28;100.00;101275.38;10539737;28;20032;-68
2023/09/12 13:42:31;;;;;;;325.67;311.20;;;;;;;23.03;100.00;101289.13;10538773;28;20032;-68
2023/09/12 13:47:32;;;;;;;286.98;274.08;;;;;;;22.86;100.00;101281.88;10520361;28;20753;-67
2023/09/12 13:52:33;;;;;;;221.02;211.38;;;;;;;23.02;100.00;101282.78;10538605;28;20044;-67
2023/09/12 13:57:33;;;;;;;226.88;217.50;;;;;;;23.44;100.00;101287.28;10539142;28;20040;-68
2023/09/12 14:02:34;;;;;;;256.73;245.25;;;;;;;23.98;100.00;101288.72;10540063;28;20427;-68
2023/09/12 14:07:35;;;;;;;287.35;274.77;;;;;;;24.02;100.00;101295.34;10519671;28;20051;-67
2023/09/12 14:12:35;;;;;;;315.88;302.33;;;;;;;23.89;100.00;101292.03;10520283;28;20340;-67
2023/09/12 14:17:36;;;;;;;319.63;305.85;;;;;;;24.28;100.00;101296.13;10536859;28;20040;-68
2023/09/12 14:22:36;;;;;;;359.13;343.38;;;;;;;24.43;100.00;101287.84;10536993;28;20031;-67
2023/09/12 14:27:37;;;;;;;389.23;372.30;;;;;;;24.05;100.00;101286.50;10518733;28;20044;-70
2023/09/12 14:32:37;;;;;;;374.95;358.95;;;;;;;23.89;100.00;101278.19;10518369;28;20351;-68
2023/09/12 14:37:37;;;;;;;400.48;382.83;;;;;;;23.80;100.00;101284.56;10519674;28;20039;-68
2023/09/12 14:42:38;;;;;;;400.67;383.35;;;;;;;24.00;100.00;101272.69;10537903;28;20053;-68
2023/09/12 14:47:38;;;;;;;405.63;387.50;;;;;;;23.84;100.00;101264.41;10536349;28;20056;-68
2023/09/12 14:52:39;;;;;;;395.45;377.60;;;;;;;23.68;100.00;101276.53;10537078;28;20066;-68
2023/09/12 14:57:39;;;;;;;399.38;381.40;;;;;;;23.47;100.00;101274.84;10536569;28;20087;-70
2023/09/12 15:02:41;;;;;;;388.33;371.00;;;;;;;23.60;100.00;101268.78;10535320;28;20500;-68
2023/09/12 15:07:42;;;;;;;356.17;340.33;;;;;;;23.72;100.00;101272.13;10535941;28;20050;-67
2023/09/12 15:12:43;;;;;;;360.52;344.08;;;;;;;23.86;100.00;101270.47;10535700;28;20486;-67
2023/09/12 15:17:43;;;;;;;399.02;380.77;;;;;;;24.04;100.00;101258.00;10534728;28;20431;-67
2023/09/12 15:22:43;;;;;;;395.60;378.13;;;;;;;24.05;100.00;101250.53;10517820;28;20391;-67
2023/09/12 15:27:44;;;;;;;421.88;402.15;;;;;;;23.99;100.00;101249.69;10517177;28;20040;-70
2023/09/12 15:32:44;;;;;;;391.13;373.25;;;;;;;23.81;100.00;101253.88;10500251;28;20128;-67
2023/09/12 15:37:45;;;;;;;384.77;368.02;;;;;;;23.81;100.00;101251.13;10515545;28;20036;-68
2023/09/12 15:42:46;;;;;;;387.67;371.00;;;;;;;23.83;100.00;101246.13;10534601;28;20470;-67
2023/09/12 15:47:46;;;;;;;393.92;376.88;;;;;;;23.88;100.00;101250.84;10533051;28;20032;-68
2023/09/12 15:52:47;;;;;;;391.27;374.23;;;;;;;23.87;100.00;101246.41;10533729;28;20056;-66
2023/09/12 15:57:47;;;;;;;388.10;371.48;;;;;;;23.73;100.00;101242.53;10534259;28;20036;-68
2023/09/12 16:02:50;;;;;;;380.92;364.75;;;;;;;23.57;100.00;101236.16;10533925;28;20170;-67
2023/09/12 16:07:51;;;;;;;379.20;362.95;;;;;;;23.47;100.00;101236.16;10516143;28;20122;-67
2023/09/12 16:12:51;;;;;;;382.02;365.60;;;;;;;23.48;100.00;101226.75;10515366;28;20115;-68
2023/09/12 16:17:52;;;;;;;397.10;379.52;;;;;;;23.53;100.00;101219.28;10533354;28;20044;-68
2023/09/12 16:22:52;;;;;;;370.83;355.10;;;;;;;23.55;100.00;101222.63;10515231;28;20395;-67
2023/09/12 16:27:52;;;;;;;356.67;341.80;;;;;;;23.48;100.00;101237.81;10533436;28;20044;-67
2023/09/12 16:32:53;;;;;;;372.30;355.75;;;;;;;23.45;100.00;101241.94;10515844;28;20036;-66
2023/09/12 16:37:54;;;;;;;374.55;358.55;;;;;;;23.46;100.00;101237.28;10515181;28;20036;-67
2023/09/12 16:42:54;;;;;;;374.38;357.60;;;;;;;23.33;100.00;101236.72;10515300;28;20024;-68
2023/09/12 16:47:55;;;;;;;360.50;345.30;;;;;;;23.13;100.00;101251.31;10517299;28;20080;-68
2023/09/12 16:52:55;;;;;;;356.85;341.55;;;;;;;23.08;100.00;101254.06;10540728;28;20048;-68
2023/09/12 16:57:55;;;;;;;356.88;341.58;;;;;;;23.04;100.00;101250.19;10540462;28;20036;-68
2023/09/12 17:02:56;;;;;;;329.35;315.83;;;;;;;22.94;100.00;101259.28;10522673;28;20131;-67
2023/09/12 17:07:56;;;;;;;341.60;327.15;;;;;;;22.82;100.00;101260.59;10541083;28;20028;-66
2023/09/12 17:12:57;;;;;;;320.67;307.50;;;;;;;22.67;100.00;101264.13;10541157;28;20446;-67
2023/09/12 17:17:57;;;;;;;320.77;306.50;;;;;;;22.58;100.00;101252.75;10540830;28;20432;-68
2023/09/12 17:22:57;;;;;;;291.50;279.33;;;;;;;22.48;100.00;101256.28;10541775;28;20047;-66
2023/09/12 17:27:58;;;;;;;285.30;273.20;;;;;;;22.27;100.00;101255.38;10539472;28;20035;-67
2023/09/12 17:32:59;;;;;;;280.92;269.40;;;;;;;22.13;100.00;101259.66;10504990;28;20054;-67
2023/09/12 17:38:00;;;;;;;257.17;246.65;;;;;;;22.00;100.00;101263.72;10521104;28;20085;-66
2023/09/12 17:43:00;;;;;;;220.70;211.27;;;;;;;21.82;100.00;101273.25;10504393;28;20082;-67
2023/09/12 17:48:00;;;;;;;211.88;202.85;;;;;;;21.73;100.00;101280.34;10538745;28;20460;-67
2023/09/12 17:53:01;;;;;;;189.82;181.73;;;;;;;21.66;100.00;101287.97;10538606;28;20147;-67
2023/09/12 17:58:01;;;;;;;182.55;174.85;;;;;;;21.60;100.00;101297.28;10537932;28;20078;-66
2023/09/12 18:03:02;;;;;;;166.60;159.60;;;;;;;21.48;100.00;101294.72;10537600;28;20117;-67
2023/09/12 18:08:03;;;;;;;254.05;243.43;;;;;;;21.43;100.00;101300.16;10519782;28;20352;-66
2023/09/12 18:13:04;;;;;;;326.00;311.27;;;;;;;21.34;100.00;101304.44;10538720;28;20086;-67
2023/09/12 18:18:04;;;;;;;286.90;274.83;;;;;;;21.27;100.00;101301.06;10537371;28;20124;-68
2023/09/12 18:23:05;;;;;;;250.82;239.98;;;;;;;21.22;100.00;101301.84;10537577;28;20115;-67
2023/09/12 18:28:05;;;;;;;230.98;221.10;;;;;;;21.18;100.00;101297.09;10539638;28;20089;-68
2023/09/12 18:33:06;;;;;;;233.35;223.68;;;;;;;21.10;100.00;101310.25;10541834;28;20145;-68
2023/09/12 18:38:06;;;;;;;236.93;226.80;;;;;;;21.04;100.00;101305.78;10539997;28;20340;-66
2023/09/12 18:43:07;;;;;;;239.63;229.60;;;;;;;20.99;100.00;101319.47;10538797;28;20039;-64
2023/09/12 18:48:07;;;;;;;245.93;235.60;;;;;;;20.92;100.00;101318.84;10418016;28;20048;-68
2023/09/12 18:53:13;;;;;;;228.88;219.23;;;;;;;20.75;100.00;101323.59;10456929;28;20132;-67
2023/09/12 18:58:14;;;;;;;239.10;229.07;;;;;;;20.61;100.00;101318.47;10456524;28;20048;-66
2023/09/12 19:03:14;;;;;;;253.57;242.95;;;;;;;20.56;100.00;101321.13;10451839;28;20036;-69
2023/09/12 19:08:15;;;;;;;254.85;244.05;;;;;;;20.49;100.00;101333.38;10452661;28;20515;-67
2023/09/12 19:13:15;;;;;;;273.80;262.42;;;;;;;20.41;100.00;101334.63;10453335;28;20472;-65
2023/09/12 19:18:16;;;;;;;275.58;263.55;;;;;;;20.38;100.00;101335.94;10468930;28;20464;-68
2023/09/12 19:23:16;;;;;;;248.15;237.43;;;;;;;20.34;100.00;101333.97;10475246;28;20074;-68
2023/09/12 19:28:17;;;;;;;209.57;200.10;;;;;;;20.27;100.00;101330.56;10493468;28;20569;-67
2023/09/12 19:33:18;;;;;;;203.35;194.10;;;;;;;20.24;100.00;101336.56;10457949;28;20505;-67
2023/09/12 19:38:18;;;;;;;177.13;169.52;;;;;;;20.22;100.00;101328.56;10492278;28;20123;-66
2023/09/12 19:43:20;;;;;;;154.35;146.88;;;;;;;20.25;100.00;101327.22;10466510;28;20090;-68
2023/09/12 19:48:21;;;;;;;156.02;149.20;;;;;;;20.26;100.00;101337.13;10450741;28;20056;-68
2023/09/12 19:53:21;;;;;;;160.30;153.43;;;;;;;20.23;100.00;101330.25;10451330;28;20052;-67
2023/09/12 19:58:22;;;;;;;139.70;133.73;;;;;;;20.19;100.00;101318.88;10433310;28;20477;-67
2023/09/12 20:03:22;;;;;;;136.10;129.65;;;;;;;20.18;100.00;101314.47;10400348;28;20095;-67
2023/09/12 20:08:23;;;;;;;136.65;130.43;;;;;;;20.15;100.00;101314.97;10450949;28;20028;-67
2023/09/12 20:13:23;;;;;;;126.80;119.78;;;;;;;20.09;100.00;101310.50;10449823;28;20096;-66
2023/09/12 20:18:25;;;;;;;158.82;151.10;;;;;;;20.03;100.00;101311.50;10431572;28;20041;-67
2023/09/12 20:23:26;;;;;;;129.45;123.18;;;;;;;20.03;100.00;101324.41;10435498;28;20037;-68
2023/09/12 20:28:27;;;;;;;123.10;117.85;;;;;;;20.09;100.00;101328.91;10459014;28;20371;-66
2023/09/12 20:33:27;;;;;;;131.23;125.55;;;;;;;20.14;100.00;101329.81;10459389;28;20597;-66
2023/09/12 20:38:28;;;;;;;131.45;125.47;;;;;;;20.15;100.00;101333.41;10440550;28;20044;-66
2023/09/12 20:43:29;;;;;;;134.88;129.07;;;;;;;20.14;100.00;101326.25;10440801;28;20056;-66
2023/09/12 20:48:31;;;;;;;137.20;130.98;;;;;;;20.08;100.00;101314.34;10458290;28;20423;-66
2023/09/12 20:53:32;;;;;;;127.20;121.13;;;;;;;19.97;100.00;101320.72;10458266;28;20069;-68
2023/09/12 20:58:32;;;;;;;130.40;124.72;;;;;;;19.81;100.00;101307.81;10423436;28;20398;-68
2023/09/12 21:03:33;;;;;;;130.82;125.07;;;;;;;19.66;100.00;101317.50;10457206;28;20033;-66
2023/09/12 21:08:33;;;;;;;124.28;118.43;;;;;;;19.60;100.00;101312.94;10425104;28;20469;-65
2023/09/12 21:13:33;;;;;;;130.63;124.93;;;;;;;19.62;100.00;101316.28;10438645;28;20033;-67
2023/09/12 21:18:34;;;;;;;123.90;117.63;;;;;;;19.61;100.00;101303.63;10438881;28;20045;-67
2023/09/12 21:23:34;;;;;;;132.18;126.65;;;;;;;19.64;100.00;101318.81;10455307;28;20114;-66
2023/09/12 21:28:34;;;;;;;131.05;125.13;;;;;;;19.65;100.00;101321.28;10471213;28;20525;-66
2023/09/12 21:33:35;;;;;;;133.13;127.32;;;;;;;19.68;100.00;101315.31;10456802;28;20028;-67
2023/09/12 21:38:36;;;;;;;139.63;133.35;;;;;;;19.62;100.00;101324.53;10471649;28;20040;-67
2023/09/12 21:43:36;;;;;;;135.85;130.23;;;;;;;19.55;100.00;101334.81;10455845;28;20044;-66
2023/09/12 21:48:37;;;;;;;142.32;136.70;;;;;;;19.58;100.00;101325.25;10455574;28;20069;-67